Time;durP1;ratioP1;P1;durP2;ratioP2;P2;SDS_P1;SDS_P2;PMS_P1;PMS_P2;Temp;Humidity;BMP_temperature;BMP_pressure;BME280_temperature;BME280_humidity;BME280_pressure;Samples;Min_cycle;Max_cycle;Signal;HPM_P1;HPM_P2
2023/04/10 00:00:21;;;;;;;12.20;10.93;;;;;;;;;;5082488;28;20196;-68
2023/04/10 00:02:48;;;;;;;12.20;10.98;;;;;;;;;;5082085;28;20200;-68
2023/04/10 00:05:16;;;;;;;12.18;10.88;;;;;;;;;;5082349;28;20200;-68
2023/04/10 00:07:42;;;;;;;12.82;10.15;;;;;;;;;;5082548;28;20365;-68
2023/04/10 00:10:09;;;;;;;12.75;10.27;;;;;;;;;;5082176;28;20207;-68
2023/04/10 00:12:35;;;;;;;13.48;10.07;;;;;;;;;;5081740;28;20201;-68
2023/04/10 00:15:01;;;;;;;11.73;10.43;;;;;;;;;;5082255;28;20208;-68
2023/04/10 00:17:28;;;;;;;13.45;10.43;;;;;;;;;;5082051;28;20200;-68
2023/04/10 00:19:54;;;;;;;11.82;9.80;;;;;;;;;;5081373;28;20208;-68
2023/04/10 00:22:22;;;;;;;10.38;9.27;;;;;;;;;;5082232;28;20196;-68
2023/04/10 00:24:48;;;;;;;10.32;9.23;;;;;;;;;;5081856;28;20207;-68
2023/04/10 00:27:14;;;;;;;10.85;9.55;;;;;;;;;;5081783;28;20544;-68
2023/04/10 00:29:40;;;;;;;11.35;9.70;;;;;;;;;;5082025;28;20698;-68
2023/04/10 00:32:07;;;;;;;10.27;9.18;;;;;;;;;;5081720;28;20220;-68
2023/04/10 00:34:33;;;;;;;11.40;8.57;;;;;;;;;;5082182;28;20204;-68
2023/04/10 00:36:59;;;;;;;11.05;9.95;;;;;;;;;;5081830;28;20196;-68
2023/04/10 00:39:27;;;;;;;10.48;9.38;;;;;;;;;;5081817;28;20196;-68
2023/04/10 00:41:53;;;;;;;14.35;10.00;;;;;;;;;;5081414;28;20200;-68
2023/04/10 00:44:19;;;;;;;13.50;10.20;;;;;;;;;;5082024;28;20204;-68
2023/04/10 00:46:46;;;;;;;11.07;9.93;;;;;;;;;;5081683;28;20206;-68
2023/04/10 00:49:12;;;;;;;11.15;9.88;;;;;;;;;;5081762;28;20250;-68
2023/04/10 00:51:40;;;;;;;10.20;9.05;;;;;;;;;;5081268;28;20220;-68
2023/04/10 00:54:09;;;;;;;10.38;9.32;;;;;;;;;;5081690;28;20205;-68
2023/04/10 00:56:36;;;;;;;10.65;9.52;;;;;;;;;;5081871;28;20266;-68
2023/04/10 00:59:03;;;;;;;10.35;9.35;;;;;;;;;;5073626;28;20196;-68
2023/04/10 01:01:29;;;;;;;10.20;9.15;;;;;;;;;;5081484;28;20203;-68
2023/04/10 01:03:56;;;;;;;9.70;8.80;;;;;;;;;;5081935;28;20204;-68
2023/04/10 01:06:26;;;;;;;9.90;8.75;;;;;;;;;;5081537;28;20246;-68
2023/04/10 01:08:54;;;;;;;9.75;8.75;;;;;;;;;;5081795;28;20212;-68
2023/04/10 01:11:27;;;;;;;10.73;9.10;;;;;;;;;;5081381;28;20547;-68
2023/04/10 01:13:58;;;;;;;9.38;8.48;;;;;;;;;;5081265;28;20414;-68
2023/04/10 01:16:26;;;;;;;10.50;9.13;;;;;;;;;;5081393;28;20201;-68
2023/04/10 01:18:55;;;;;;;10.15;9.10;;;;;;;;;;5081313;28;20201;-68
2023/04/10 01:21:22;;;;;;;10.63;9.43;;;;;;;;;;5081083;28;20200;-67
2023/04/10 01:24:06;;;;;;;10.77;9.38;;;;;;;;;;5081578;28;20690;-68
2023/04/10 01:26:39;;;;;;;12.88;9.10;;;;;;;;;;5081297;28;20419;-68
2023/04/10 01:29:08;;;;;;;10.38;9.27;;;;;;;;;;5072740;28;20239;-68
2023/04/10 01:31:36;;;;;;;10.52;8.30;;;;;;;;;;5083858;28;20223;-68
2023/04/10 01:34:05;;;;;;;10.07;9.07;;;;;;;;;;5085006;28;20504;-68
2023/04/10 01:36:33;;;;;;;11.15;9.40;;;;;;;;;;5084876;28;20231;-68
2023/04/10 01:39:00;;;;;;;12.10;9.35;;;;;;;;;;5084762;28;20204;-66
2023/04/10 01:41:27;;;;;;;12.05;8.60;;;;;;;;;;5084572;28;20211;-66
2023/04/10 01:43:55;;;;;;;9.50;8.60;;;;;;;;;;5084723;28;20200;-67
2023/04/10 01:46:23;;;;;;;11.20;9.23;;;;;;;;;;5084733;28;20504;-68
2023/04/10 01:48:50;;;;;;;10.93;9.48;;;;;;;;;;5084535;28;20369;-66
2023/04/10 01:51:17;;;;;;;9.77;8.77;;;;;;;;;;5084450;28;20233;-66
2023/04/10 01:53:44;;;;;;;10.70;9.15;;;;;;;;;;5084669;28;20208;-66
2023/04/10 01:56:10;;;;;;;9.63;8.63;;;;;;;;;;5084353;28;20205;-66
2023/04/10 01:58:37;;;;;;;10.10;8.95;;;;;;;;;;5084508;28;20262;-66
2023/04/10 02:01:03;;;;;;;10.15;9.05;;;;;;;;;;5084150;28;20554;-66
2023/04/10 02:03:30;;;;;;;10.68;9.40;;;;;;;;;;5084535;28;20207;-66
2023/04/10 02:06:08;;;;;;;10.57;9.15;;;;;;;;;;5084177;28;20200;-66
2023/04/10 02:08:36;;;;;;;10.93;9.02;;;;;;;;;;5084386;28;20208;-66
2023/04/10 02:11:07;;;;;;;10.32;9.18;;;;;;;;;;5083863;28;20554;-66
2023/04/10 02:13:34;;;;;;;9.90;8.90;;;;;;;;;;5084219;28;20211;-68
2023/04/10 02:16:02;;;;;;;11.85;10.48;;;;;;;;;;5084033;28;20204;-66
2023/04/10 02:18:29;;;;;;;12.48;9.57;;;;;;;;;;5084301;28;20397;-66
2023/04/10 02:20:57;;;;;;;11.35;9.48;;;;;;;;;;5083886;28;20204;-66
2023/04/10 02:23:23;;;;;;;11.02;9.52;;;;;;;;;;5083910;28;20200;-66
2023/04/10 02:25:50;;;;;;;11.73;9.98;;;;;;;;;;5084087;28;20403;-66
2023/04/10 02:28:16;;;;;;;11.27;9.23;;;;;;;;;;5083984;28;20220;-66
2023/04/10 02:30:42;;;;;;;12.25;9.70;;;;;;;;;;5083796;28;20205;-67
2023/04/10 02:33:09;;;;;;;11.27;9.95;;;;;;;;;;5083739;28;20415;-66
2023/04/10 02:35:36;;;;;;;11.20;10.00;;;;;;;;;;5083823;28;20220;-66
2023/04/10 02:38:04;;;;;;;12.80;10.55;;;;;;;;;;5083661;28;20215;-66
2023/04/10 02:40:30;;;;;;;11.38;10.10;;;;;;;;;;5083861;28;20200;-66
2023/04/10 02:42:56;;;;;;;14.02;10.65;;;;;;;;;;5082925;28;20316;-68
2023/04/10 02:45:22;;;;;;;15.27;10.82;;;;;;;;;;5083842;28;20434;-66
2023/04/10 02:47:49;;;;;;;12.30;10.32;;;;;;;;;;5084008;28;20511;-66
2023/04/10 02:50:16;;;;;;;11.65;10.02;;;;;;;;;;5083577;28;20511;-66
2023/04/10 02:52:42;;;;;;;11.45;10.25;;;;;;;;;;5083135;28;20558;-66
2023/04/10 02:55:10;;;;;;;12.68;9.93;;;;;;;;;;5075400;28;20504;-66
2023/04/10 02:57:36;;;;;;;11.00;9.38;;;;;;;;;;5083459;28;20430;-66
2023/04/10 03:00:04;;;;;;;11.52;9.98;;;;;;;;;;5083290;28;20512;-67
2023/04/10 03:02:30;;;;;;;11.18;9.70;;;;;;;;;;5083091;28;20208;-66
2023/04/10 03:04:57;;;;;;;14.30;9.68;;;;;;;;;;5083055;28;20192;-66
2023/04/10 03:07:23;;;;;;;12.38;10.20;;;;;;;;;;5083423;28;20200;-66
2023/04/10 03:09:49;;;;;;;11.27;9.55;;;;;;;;;;5083008;28;20511;-66
2023/04/10 03:12:17;;;;;;;11.73;10.38;;;;;;;;;;5082971;28;20538;-66
2023/04/10 03:14:43;;;;;;;13.10;10.35;;;;;;;;;;5083192;28;20523;-66
2023/04/10 03:17:11;;;;;;;11.18;9.93;;;;;;;;;;5082899;28;20427;-66
2023/04/10 03:19:37;;;;;;;10.93;9.75;;;;;;;;;;5082995;28;20515;-66
2023/04/10 03:22:03;;;;;;;14.85;9.90;;;;;;;;;;5082832;28;20634;-66
2023/04/10 03:24:29;;;;;;;13.25;10.48;;;;;;;;;;5082967;28;20245;-66
2023/04/10 03:26:56;;;;;;;12.43;10.77;;;;;;;;;;5082939;28;20432;-66
2023/04/10 03:29:23;;;;;;;11.00;9.60;;;;;;;;;;5083054;28;20258;-66
2023/04/10 03:31:50;;;;;;;11.40;10.00;;;;;;;;;;5082249;28;20224;-66
2023/04/10 03:34:17;;;;;;;10.55;8.90;;;;;;;;;;5082622;28;20259;-66
2023/04/10 03:36:43;;;;;;;11.13;9.90;;;;;;;;;;5082597;28;20202;-66
2023/04/10 03:39:09;;;;;;;11.50;9.93;;;;;;;;;;5082453;28;20208;-66
2023/04/10 03:41:36;;;;;;;12.63;10.00;;;;;;;;;;5082500;28;20273;-66
2023/04/10 03:44:02;;;;;;;10.85;9.70;;;;;;;;;;5082432;28;20254;-66
2023/04/10 03:46:30;;;;;;;13.85;10.45;;;;;;;;;;5082483;28;20228;-66
2023/04/10 03:48:56;;;;;;;11.35;9.85;;;;;;;;;;5082097;28;20212;-66
2023/04/10 03:51:23;;;;;;;11.70;9.93;;;;;;;;;;5082205;28;20223;-66
2023/04/10 03:53:50;;;;;;;13.25;10.25;;;;;;;;;;5081387;28;20204;-66
2023/04/10 03:56:16;;;;;;;12.32;10.25;;;;;;;;;;5082221;28;20371;-68
2023/04/10 03:58:42;;;;;;;11.52;10.23;;;;;;;;;;5082277;28;20207;-66
2023/04/10 04:01:09;;;;;;;12.68;9.80;;;;;;;;;;5081833;28;20200;-66
2023/04/10 04:03:36;;;;;;;11.68;10.48;;;;;;;;;;5082158;28;20204;-66
2023/04/10 04:06:03;;;;;;;11.35;9.60;;;;;;;;;;5082060;28;20200;-68
2023/04/10 04:08:29;;;;;;;11.98;9.68;;;;;;;;;;5082214;28;20227;-68
2023/04/10 04:10:55;;;;;;;12.52;10.30;;;;;;;;;;5081786;28;20200;-68
2023/04/10 04:13:21;;;;;;;13.50;10.27;;;;;;;;;;5081978;28;20266;-68
2023/04/10 04:15:48;;;;;;;11.57;10.10;;;;;;;;;;5081960;28;20203;-66
2023/04/10 04:18:14;;;;;;;13.45;11.20;;;;;;;;;;5073710;28;20200;-66
2023/04/10 04:20:42;;;;;;;11.60;10.30;;;;;;;;;;5082099;28;20262;-66
2023/04/10 04:23:08;;;;;;;12.40;9.90;;;;;;;;;;5081813;28;20204;-66
2023/04/10 04:25:34;;;;;;;11.68;9.43;;;;;;;;;;5081783;28;20208;-67
2023/04/10 04:28:01;;;;;;;11.38;9.85;;;;;;;;;;5081784;28;20502;-67
2023/04/10 04:30:27;;;;;;;10.55;9.45;;;;;;;;;;5082331;28;20200;-67
2023/04/10 04:32:53;;;;;;;10.95;9.50;;;;;;;;;;5081677;28;20219;-67
2023/04/10 04:35:20;;;;;;;11.15;9.40;;;;;;;;;;5082271;28;20505;-67
2023/04/10 04:37:47;;;;;;;10.13;8.50;;;;;;;;;;5081993;28;20200;-67
2023/04/10 04:40:13;;;;;;;11.90;9.88;;;;;;;;;;5081684;28;20204;-67
2023/04/10 04:42:40;;;;;;;12.07;10.02;;;;;;;;;;5081708;28;20203;-68
2023/04/10 04:45:07;;;;;;;15.38;10.43;;;;;;;;;;5081655;28;20446;-66
2023/04/10 04:47:33;;;;;;;13.70;10.57;;;;;;;;;;5082032;28;20208;-66
2023/04/10 04:49:59;;;;;;;10.98;9.32;;;;;;;;;;5081712;28;20204;-68
2023/04/10 04:52:26;;;;;;;9.80;8.80;;;;;;;;;;5081440;28;20539;-67
2023/04/10 04:54:53;;;;;;;9.65;8.63;;;;;;;;;;5081483;28;20267;-67
2023/04/10 04:57:20;;;;;;;10.25;9.15;;;;;;;;;;5081506;28;20204;-67
2023/04/10 04:59:46;;;;;;;9.93;8.77;;;;;;;;;;5081398;28;20258;-68
2023/04/10 05:02:12;;;;;;;10.77;9.40;;;;;;;;;;5081388;28;20426;-67
2023/04/10 05:04:38;;;;;;;10.35;9.27;;;;;;;;;;5081762;28;20508;-68
2023/04/10 05:07:05;;;;;;;12.32;9.65;;;;;;;;;;5085176;28;20201;-67
2023/04/10 05:09:31;;;;;;;11.63;9.48;;;;;;;;;;5085468;28;20212;-67
2023/04/10 05:11:59;;;;;;;11.20;9.77;;;;;;;;;;5085071;28;20243;-67
2023/04/10 05:14:25;;;;;;;11.43;9.25;;;;;;;;;;5085448;28;20212;-67
2023/04/10 05:16:51;;;;;;;10.00;8.77;;;;;;;;;;5085485;28;20512;-67
2023/04/10 05:19:17;;;;;;;11.25;9.45;;;;;;;;;;5077348;28;20554;-67
2023/04/10 05:21:44;;;;;;;10.38;9.02;;;;;;;;;;5085259;28;20373;-67
2023/04/10 05:24:10;;;;;;;11.32;9.30;;;;;;;;;;5085137;28;20207;-68
2023/04/10 05:26:36;;;;;;;10.50;9.40;;;;;;;;;;5085073;28;20200;-67
2023/04/10 05:29:04;;;;;;;11.52;9.43;;;;;;;;;;5084972;28;20561;-68
2023/04/10 05:31:30;;;;;;;11.55;9.35;;;;;;;;;;5085002;28;20200;-67
2023/04/10 05:33:57;;;;;;;10.55;9.43;;;;;;;;;;5085027;28;20224;-67
2023/04/10 05:36:23;;;;;;;11.70;10.05;;;;;;;;;;5085210;28;20219;-67
2023/04/10 05:38:49;;;;;;;14.10;11.85;;;;;;;;;;5084924;28;20200;-67
2023/04/10 05:41:15;;;;;;;15.80;12.95;;;;;;;;;;5084502;28;20192;-68
2023/04/10 05:43:41;;;;;;;13.15;11.07;;;;;;;;;;5085008;28;20192;-68
2023/04/10 05:46:10;;;;;;;14.57;10.93;;;;;;;;;;5084711;28;20531;-68
2023/04/10 05:48:36;;;;;;;12.10;10.50;;;;;;;;;;5084671;28;20216;-68
2023/04/10 05:51:03;;;;;;;12.90;10.75;;;;;;;;;;5084477;28;20197;-68
2023/04/10 05:53:30;;;;;;;11.63;10.10;;;;;;;;;;5084546;28;20480;-68
2023/04/10 05:55:58;;;;;;;11.20;9.80;;;;;;;;;;5084561;28;20275;-68
2023/04/10 05:58:24;;;;;;;11.30;10.13;;;;;;;;;;5084849;28;20196;-68
2023/04/10 06:00:51;;;;;;;13.02;10.25;;;;;;;;;;5084596;28;20203;-68
2023/04/10 06:03:19;;;;;;;12.07;9.45;;;;;;;;;;5084717;28;20192;-68
2023/04/10 06:05:45;;;;;;;12.18;10.60;;;;;;;;;;5084619;28;20377;-68
2023/04/10 06:08:12;;;;;;;12.43;10.00;;;;;;;;;;5084458;28;20203;-68
2023/04/10 06:10:38;;;;;;;12.05;10.85;;;;;;;;;;5084531;28;20578;-68
2023/04/10 06:13:05;;;;;;;12.40;9.85;;;;;;;;;;5084355;28;20250;-68
2023/04/10 06:15:31;;;;;;;12.63;10.82;;;;;;;;;;5084726;28;20203;-68
2023/04/10 06:17:59;;;;;;;12.95;11.50;;;;;;;;;;5083638;28;20583;-68
2023/04/10 06:20:26;;;;;;;12.75;11.10;;;;;;;;;;5084454;28;20212;-68
2023/04/10 06:22:53;;;;;;;12.00;10.35;;;;;;;;;;5084133;28;20192;-68
2023/04/10 06:25:19;;;;;;;11.38;10.23;;;;;;;;;;5084456;28;20238;-68
2023/04/10 06:27:45;;;;;;;14.20;11.65;;;;;;;;;;5084420;28;20231;-68
2023/04/10 06:30:12;;;;;;;14.43;11.45;;;;;;;;;;5084264;28;20201;-68
2023/04/10 06:32:38;;;;;;;15.10;12.13;;;;;;;;;;5084265;28;20530;-68
2023/04/10 06:35:04;;;;;;;12.93;11.38;;;;;;;;;;5084279;28;20201;-68
2023/04/10 06:37:32;;;;;;;13.27;11.13;;;;;;;;;;5084018;28;20504;-68
2023/04/10 06:40:02;;;;;;;12.57;11.20;;;;;;;;;;5083954;28;20200;-68
2023/04/10 06:42:28;;;;;;;14.02;10.63;;;;;;;;;;5084159;28;20193;-68
2023/04/10 06:44:55;;;;;;;14.68;11.18;;;;;;;;;;5084024;28;20200;-67
2023/04/10 06:47:21;;;;;;;13.27;10.07;;;;;;;;;;5083304;28;20246;-67
2023/04/10 06:49:47;;;;;;;11.73;10.52;;;;;;;;;;5083635;28;20500;-68
2023/04/10 06:52:13;;;;;;;12.93;10.65;;;;;;;;;;5083542;28;20496;-68
2023/04/10 06:54:41;;;;;;;13.40;11.40;;;;;;;;;;5084113;28;20532;-68
2023/04/10 06:57:07;;;;;;;12.60;11.05;;;;;;;;;;5083945;28;20196;-68
2023/04/10 06:59:34;;;;;;;13.13;11.02;;;;;;;;;;5083772;28;20200;-68
2023/04/10 07:02:00;;;;;;;12.27;10.95;;;;;;;;;;5083436;28;20260;-68
2023/04/10 07:04:27;;;;;;;12.57;11.05;;;;;;;;;;5083683;28;20193;-68
2023/04/10 07:06:53;;;;;;;13.63;11.43;;;;;;;;;;5083667;28;20253;-68
2023/04/10 07:09:19;;;;;;;12.05;10.57;;;;;;;;;;5083703;28;20226;-68
2023/04/10 07:11:48;;;;;;;12.55;10.52;;;;;;;;;;5083333;28;20238;-68
2023/04/10 07:14:14;;;;;;;11.68;9.50;;;;;;;;;;5083169;28;20283;-68
2023/04/10 07:16:40;;;;;;;14.73;9.35;;;;;;;;;;5083485;28;20415;-67
2023/04/10 07:19:07;;;;;;;10.55;9.52;;;;;;;;;;5083252;28;20523;-67
2023/04/10 07:21:33;;;;;;;11.18;8.60;;;;;;;;;;5083224;28;20404;-67
2023/04/10 07:23:59;;;;;;;11.18;9.82;;;;;;;;;;5083490;28;20421;-67
2023/04/10 07:26:25;;;;;;;9.80;8.80;;;;;;;;;;5083390;28;20197;-67
2023/04/10 07:28:53;;;;;;;12.68;9.70;;;;;;;;;;5083038;28;20224;-67
2023/04/10 07:31:19;;;;;;;10.18;9.15;;;;;;;;;;5082863;28;20205;-68
2023/04/10 07:33:46;;;;;;;10.18;8.50;;;;;;;;;;5082879;28;20212;-68
2023/04/10 07:36:12;;;;;;;8.52;7.72;;;;;;;;;;5083145;28;20219;-68
2023/04/10 07:38:39;;;;;;;8.10;7.30;;;;;;;;;;5083131;28;20196;-68
2023/04/10 07:41:05;;;;;;;8.35;7.60;;;;;;;;;;5082698;28;20196;-68
2023/04/10 07:43:32;;;;;;;7.70;7.00;;;;;;;;;;5083232;28;20532;-68
2023/04/10 07:45:59;;;;;;;7.10;6.50;;;;;;;;;;5082942;28;20230;-68
2023/04/10 07:48:25;;;;;;;8.98;6.35;;;;;;;;;;5082623;28;20211;-68
2023/04/10 07:50:52;;;;;;;6.80;6.13;;;;;;;;;;5082800;28;20373;-68
2023/04/10 07:53:19;;;;;;;5.30;4.90;;;;;;;;;;5082327;28;20220;-68
2023/04/10 07:55:47;;;;;;;6.47;5.95;;;;;;;;;;5082467;28;20310;-68
2023/04/10 07:58:13;;;;;;;6.13;5.63;;;;;;;;;;5082170;28;20212;-68
2023/04/10 08:00:40;;;;;;;6.18;5.68;;;;;;;;;;5082253;28;20200;-68
2023/04/10 08:03:07;;;;;;;5.63;5.13;;;;;;;;;;5082120;28;20208;-68
2023/04/10 08:05:34;;;;;;;5.95;5.45;;;;;;;;;;5082599;28;20201;-68
2023/04/10 08:08:00;;;;;;;5.63;5.20;;;;;;;;;;5082401;28;20376;-68
2023/04/10 08:10:26;;;;;;;4.90;4.60;;;;;;;;;;5082195;28;20192;-68
2023/04/10 08:12:53;;;;;;;4.97;4.57;;;;;;;;;;5081740;28;20388;-67
2023/04/10 08:15:19;;;;;;;5.03;4.65;;;;;;;;;;5081958;28;20203;-67
2023/04/10 08:17:45;;;;;;;4.85;4.55;;;;;;;;;;5082173;28;20201;-67
2023/04/10 08:20:13;;;;;;;5.68;5.28;;;;;;;;;;5081836;28;20197;-67
2023/04/10 08:22:40;;;;;;;4.57;4.28;;;;;;;;;;5082143;28;20426;-67
2023/04/10 08:25:06;;;;;;;4.60;4.30;;;;;;;;;;5082275;28;20429;-68
2023/04/10 08:27:32;;;;;;;4.75;4.38;;;;;;;;;;5082112;28;20555;-68
2023/04/10 08:29:59;;;;;;;4.53;4.22;;;;;;;;;;5081819;28;20425;-68
2023/04/10 08:32:26;;;;;;;5.03;4.72;;;;;;;;;;5081846;28;20422;-68
2023/04/10 08:34:52;;;;;;;4.57;4.28;;;;;;;;;;5081866;28;20243;-68
2023/04/10 08:37:20;;;;;;;4.80;4.50;;;;;;;;;;5081961;28;20208;-68
2023/04/10 08:39:46;;;;;;;4.72;4.32;;;;;;;;;;5081488;28;20227;-68
2023/04/10 08:42:13;;;;;;;4.32;4.03;;;;;;;;;;5081599;28;20200;-68
2023/04/10 08:44:40;;;;;;;4.60;4.30;;;;;;;;;;5081709;28;20225;-68
2023/04/10 08:47:08;;;;;;;4.70;4.30;;;;;;;;;;5081805;28;20234;-68
2023/04/10 08:49:39;;;;;;;4.53;4.22;;;;;;;;;;5082228;28;20431;-67
2023/04/10 08:52:07;;;;;;;3.85;3.65;;;;;;;;;;5081617;28;20567;-67
2023/04/10 08:54:37;;;;;;;3.67;3.47;;;;;;;;;;5082286;28;20431;-67
2023/04/10 08:57:06;;;;;;;3.78;3.65;;;;;;;;;;5081485;28;20425;-67
2023/04/10 08:59:32;;;;;;;4.18;3.88;;;;;;;;;;5073884;28;20492;-67
2023/04/10 09:01:59;;;;;;;3.60;3.50;;;;;;;;;;5081587;28;20530;-67
2023/04/10 09:04:25;;;;;;;4.00;3.80;;;;;;;;;;5081472;28;20457;-67
2023/04/10 09:06:52;;;;;;;3.88;3.67;;;;;;;;;;5081698;28;20202;-67
2023/04/10 09:09:18;;;;;;;3.92;3.72;;;;;;;;;;5081360;28;20210;-67
2023/04/10 09:12:00;;;;;;;3.97;3.78;;;;;;;;;;5080917;28;20492;-67
2023/04/10 09:14:27;;;;;;;3.15;3.05;;;;;;;;;;5081116;28;20228;-67
2023/04/10 09:16:53;;;;;;;3.85;3.63;;;;;;;;;;5081242;28;20196;-67
2023/04/10 09:19:29;;;;;;;3.22;2.83;;;;;;;;;;5081285;28;20201;-67
2023/04/10 09:21:55;;;;;;;3.60;2.90;;;;;;;;;;5080953;28;20200;-67
2023/04/10 09:24:22;;;;;;;2.75;2.65;;;;;;;;;;5081267;28;20205;-67
2023/04/10 09:26:48;;;;;;;3.00;2.50;;;;;;;;;;5081199;28;20207;-67
2023/04/10 09:29:16;;;;;;;3.30;3.20;;;;;;;;;;5081332;28;20227;-67
2023/04/10 09:31:43;;;;;;;6.13;5.50;;;;;;;;;;5081030;28;20201;-67
2023/04/10 09:34:13;;;;;;;3.00;2.88;;;;;;;;;;5080892;28;20217;-67
2023/04/10 09:36:41;;;;;;;2.88;2.67;;;;;;;;;;5081304;28;20196;-69
2023/04/10 09:39:07;;;;;;;3.22;3.03;;;;;;;;;;5081240;28;20196;-67
2023/04/10 09:41:34;;;;;;;3.40;3.20;;;;;;;;;;5080992;28;20200;-67
2023/04/10 09:44:07;;;;;;;2.85;2.75;;;;;;;;;;5081210;28;20485;-67
2023/04/10 09:46:35;;;;;;;2.60;2.50;;;;;;;;;;5072914;28;20500;-67
2023/04/10 09:49:04;;;;;;;3.17;2.80;;;;;;;;;;5080887;28;20235;-67
2023/04/10 09:51:30;;;;;;;2.50;2.40;;;;;;;;;;5081048;28;20193;-67
2023/04/10 09:53:57;;;;;;;2.42;2.33;;;;;;;;;;5084028;28;20212;-67
2023/04/10 09:56:25;;;;;;;2.03;2.00;;;;;;;;;;5084545;28;20200;-67
2023/04/10 09:58:51;;;;;;;1.90;1.90;;;;;;;;;;5084524;28;20205;-67
2023/04/10 10:01:17;;;;;;;2.15;2.05;;;;;;;;;;5084117;28;20517;-68
2023/04/10 10:03:46;;;;;;;2.40;2.30;;;;;;;;;;5084404;28;20496;-68
2023/04/10 10:06:12;;;;;;;3.05;2.33;;;;;;;;;;5084683;28;20200;-68
2023/04/10 10:08:39;;;;;;;2.25;2.25;;;;;;;;;;5084572;28;20192;-68
2023/04/10 10:11:10;;;;;;;2.30;2.30;;;;;;;;;;5084486;28;20204;-68
2023/04/10 10:13:47;;;;;;;2.28;2.17;;;;;;;;;;5076376;28;20220;-67
2023/04/10 10:16:16;;;;;;;1.60;1.60;;;;;;;;;;5083896;28;20400;-67
2023/04/10 10:18:44;;;;;;;2.10;2.10;;;;;;;;;;5084204;28;20263;-67
2023/04/10 10:21:12;;;;;;;2.08;1.98;;;;;;;;;;5083807;28;20577;-67
2023/04/10 10:23:40;;;;;;;1.80;1.80;;;;;;;;;;5084432;28;20656;-68
2023/04/10 10:26:06;;;;;;;2.33;2.22;;;;;;;;;;5084437;28;20466;-68
2023/04/10 10:28:33;;;;;;;2.28;2.17;;;;;;;;;;5083948;28;20435;-68
2023/04/10 10:31:01;;;;;;;1.83;1.83;;;;;;;;;;5083926;28;20268;-68
2023/04/10 10:33:29;;;;;;;1.88;1.77;;;;;;;;;;5083854;28;20306;-68
2023/04/10 10:35:57;;;;;;;2.15;2.05;;;;;;;;;;5084062;28;20196;-69
2023/04/10 10:38:25;;;;;;;2.10;2.00;;;;;;;;;;5083974;28;20205;-67
2023/04/10 10:40:54;;;;;;;2.03;2.03;;;;;;;;;;5083834;28;20235;-68
2023/04/10 10:43:24;;;;;;;2.22;2.13;;;;;;;;;;5083683;28;20254;-68
2023/04/10 10:45:52;;;;;;;2.00;2.00;;;;;;;;;;5083980;28;20204;-68
2023/04/10 10:48:18;;;;;;;1.80;1.80;;;;;;;;;;5083905;28;20395;-67
2023/04/10 10:50:52;;;;;;;2.00;2.00;;;;;;;;;;5083811;28;20295;-68
2023/04/10 10:53:35;;;;;;;1.80;1.80;;;;;;;;;;5083597;28;20200;-68
2023/04/10 10:56:16;;;;;;;1.45;1.45;;;;;;;;;;5083536;28;20570;-68
2023/04/10 10:58:46;;;;;;;2.15;2.05;;;;;;;;;;5075723;28;20234;-68
2023/04/10 11:01:12;;;;;;;1.88;1.88;;;;;;;;;;5082787;28;20200;-68
2023/04/10 11:03:39;;;;;;;1.90;1.90;;;;;;;;;;5082716;28;20503;-68
2023/04/10 11:06:07;;;;;;;2.30;2.10;;;;;;;;;;5083188;28;20496;-68
2023/04/10 11:08:46;;;;;;;2.15;2.10;;;;;;;;;;5082818;28;20430;-68
2023/04/10 11:11:16;;;;;;;1.38;1.38;;;;;;;;;;5082845;28;20204;-68
2023/04/10 11:14:03;;;;;;;2.00;2.00;;;;;;;;;;5082792;28;20267;-68
2023/04/10 11:16:42;;;;;;;1.60;1.60;;;;;;;;;;5082584;28;20200;-68
2023/04/10 11:19:11;;;;;;;1.50;1.50;;;;;;;;;;5081286;28;21824;-68
2023/04/10 11:21:58;;;;;;;1.65;1.65;;;;;;;;;;5074694;28;20219;-68
2023/04/10 11:24:26;;;;;;;1.55;1.55;;;;;;;;;;5082831;28;20203;-68
2023/04/10 11:26:52;;;;;;;1.70;1.60;;;;;;;;;;5082896;28;20247;-75
2023/04/10 11:29:34;;;;;;;1.00;1.00;;;;;;;;;;5082852;28;20505;-68
2023/04/10 11:32:02;;;;;;;1.45;1.20;;;;;;;;;;5082048;28;20192;-68
2023/04/10 11:34:29;;;;;;;1.20;0.88;;;;;;;;;;5080103;28;20291;-68
2023/04/10 11:36:56;;;;;;;0.85;0.85;;;;;;;;;;5076760;28;20250;-68
2023/04/10 11:39:22;;;;;;;0.80;0.80;;;;;;;;;;5081796;28;20221;-69
2023/04/10 11:41:50;;;;;;;0.77;0.77;;;;;;;;;;5082646;28;20204;-69
2023/04/10 11:44:19;;;;;;;0.70;0.70;;;;;;;;;;5082834;28;20200;-69
2023/04/10 11:46:46;;;;;;;0.90;0.90;;;;;;;;;;5082864;28;20196;-69
2023/04/10 11:49:17;;;;;;;0.60;0.60;;;;;;;;;;5082818;28;20200;-68
2023/04/10 11:51:45;;;;;;;0.75;0.75;;;;;;;;;;5074667;28;20196;-68
2023/04/10 11:54:12;;;;;;;0.50;0.50;;;;;;;;;;5082211;28;20220;-68
2023/04/10 11:56:39;;;;;;;0.70;0.70;;;;;;;;;;5082437;28;20196;-68
2023/04/10 11:59:09;;;;;;;0.60;0.60;;;;;;;;;;5082986;28;20200;-68
2023/04/10 12:01:36;;;;;;;0.60;0.60;;;;;;;;;;5082119;28;20204;-68
2023/04/10 12:04:03;;;;;;;0.65;0.65;;;;;;;;;;5082279;28;20192;-68
2023/04/10 12:06:30;;;;;;;0.70;0.70;;;;;;;;;;5082106;28;20200;-68
2023/04/10 12:08:56;;;;;;;0.70;0.70;;;;;;;;;;5082280;28;20210;-68
2023/04/10 12:11:23;;;;;;;0.80;0.80;;;;;;;;;;5081699;28;20204;-68
2023/04/10 12:13:51;;;;;;;0.90;0.90;;;;;;;;;;5081628;28;20200;-67
2023/04/10 12:16:20;;;;;;;0.70;0.70;;;;;;;;;;5080987;28;20211;-67
2023/04/10 12:18:46;;;;;;;2.35;0.63;;;;;;;;;;5081842;28;20218;-67
2023/04/10 12:21:13;;;;;;;0.82;0.80;;;;;;;;;;5081539;28;20196;-67
2023/04/10 12:23:39;;;;;;;0.80;0.80;;;;;;;;;;5081600;28;20208;-67
2023/04/10 12:26:07;;;;;;;0.82;0.82;;;;;;;;;;5082060;28;20368;-67
2023/04/10 12:28:33;;;;;;;0.77;0.77;;;;;;;;;;5081783;28;20247;-67
2023/04/10 12:30:59;;;;;;;0.70;0.70;;;;;;;;;;5081444;28;20201;-67
2023/04/10 12:33:27;;;;;;;0.80;0.80;;;;;;;;;;5082027;28;20206;-67
2023/04/10 12:35:54;;;;;;;0.98;0.98;;;;;;;;;;5080948;28;20229;-67
2023/04/10 12:38:36;;;;;;;0.73;0.73;;;;;;;;;;5081888;28;20250;-67
2023/04/10 12:41:03;;;;;;;0.93;0.93;;;;;;;;;;5081351;28;20435;-67
2023/04/10 12:43:33;;;;;;;0.90;0.90;;;;;;;;;;5081531;28;20204;-68
2023/04/10 12:45:59;;;;;;;1.05;1.05;;;;;;;;;;5081847;28;20418;-67
2023/04/10 12:48:27;;;;;;;0.80;0.80;;;;;;;;;;5081802;28;20200;-67
2023/04/10 12:50:53;;;;;;;0.80;0.80;;;;;;;;;;5081260;28;20507;-67
2023/04/10 12:53:20;;;;;;;0.90;0.90;;;;;;;;;;5081734;28;20199;-67
2023/04/10 12:55:57;;;;;;;0.90;0.90;;;;;;;;;;5081482;28;20664;-68
2023/04/10 12:58:26;;;;;;;1.08;1.08;;;;;;;;;;5081715;28;20238;-68
2023/04/10 13:00:53;;;;;;;1.00;1.00;;;;;;;;;;5081106;28;20196;-67
2023/04/10 13:03:20;;;;;;;3.03;1.27;;;;;;;;;;5081440;28;20271;-68
2023/04/10 13:05:47;;;;;;;1.10;1.10;;;;;;;;;;5081147;28;20192;-67
2023/04/10 13:08:13;;;;;;;1.45;1.45;;;;;;;;;;5081548;28;20203;-67
2023/04/10 13:10:41;;;;;;;1.20;1.20;;;;;;;;;;5081397;28;20196;-67
2023/04/10 13:13:07;;;;;;;1.40;1.02;;;;;;;;;;5080989;28;20403;-67
2023/04/10 13:15:34;;;;;;;1.00;1.00;;;;;;;;;;5080237;28;20227;-67
2023/04/10 13:18:00;;;;;;;0.90;0.90;;;;;;;;;;5081466;28;20196;-67
2023/04/10 13:20:27;;;;;;;1.05;1.05;;;;;;;;;;5081009;28;20200;-67
2023/04/10 13:22:54;;;;;;;0.88;0.88;;;;;;;;;;5080999;28;20200;-67
2023/04/10 13:25:21;;;;;;;1.00;1.00;;;;;;;;;;5081060;28;20554;-68
2023/04/10 13:27:47;;;;;;;1.20;1.20;;;;;;;;;;5084066;28;20216;-68
2023/04/10 13:30:14;;;;;;;1.60;1.10;;;;;;;;;;5085513;28;20396;-67
2023/04/10 13:32:40;;;;;;;0.93;0.93;;;;;;;;;;5084553;28;20242;-67
2023/04/10 13:35:07;;;;;;;1.00;1.00;;;;;;;;;;5084937;28;20216;-67
2023/04/10 13:37:33;;;;;;;1.17;1.17;;;;;;;;;;5084761;28;20199;-67
2023/04/10 13:40:01;;;;;;;0.98;0.98;;;;;;;;;;5084686;28;20500;-67
2023/04/10 13:42:27;;;;;;;0.80;0.80;;;;;;;;;;5084315;28;20432;-67
2023/04/10 13:44:53;;;;;;;1.00;1.00;;;;;;;;;;5084978;28;20527;-67
2023/04/10 13:47:20;;;;;;;0.85;0.85;;;;;;;;;;5084847;28;20503;-67
2023/04/10 13:49:46;;;;;;;0.90;0.90;;;;;;;;;;5084419;28;20202;-67
2023/04/10 13:52:12;;;;;;;1.27;1.17;;;;;;;;;;5084379;28;20203;-67
2023/04/10 13:54:38;;;;;;;0.90;0.90;;;;;;;;;;5084455;28;20250;-67
2023/04/10 13:57:06;;;;;;;0.98;0.98;;;;;;;;;;5084291;28;20201;-67
2023/04/10 13:59:32;;;;;;;0.98;0.98;;;;;;;;;;5084443;28;20522;-67
2023/04/10 14:01:58;;;;;;;0.77;0.77;;;;;;;;;;5084292;28;20196;-67
2023/04/10 14:04:25;;;;;;;1.30;1.30;;;;;;;;;;5084366;28;20267;-67
2023/04/10 14:06:52;;;;;;;0.98;0.98;;;;;;;;;;5084606;28;20202;-67
2023/04/10 14:09:18;;;;;;;1.00;1.00;;;;;;;;;;5084404;28;20228;-67
2023/04/10 14:11:44;;;;;;;1.10;1.10;;;;;;;;;;5083774;28;20196;-67
2023/04/10 14:14:12;;;;;;;1.00;1.00;;;;;;;;;;5084056;28;20200;-67
2023/04/10 14:16:38;;;;;;;1.20;1.20;;;;;;;;;;5084196;28;20224;-67
2023/04/10 14:19:04;;;;;;;0.98;0.98;;;;;;;;;;5084117;28;20200;-67
2023/04/10 14:21:31;;;;;;;0.93;0.93;;;;;;;;;;5084293;28;20429;-67
2023/04/10 14:23:58;;;;;;;1.00;1.00;;;;;;;;;;5084107;28;20196;-68
2023/04/10 14:26:24;;;;;;;3.42;1.17;;;;;;;;;;5083825;28;20196;-67
2023/04/10 14:28:51;;;;;;;1.20;1.20;;;;;;;;;;5084098;28;20216;-67
2023/04/10 14:31:19;;;;;;;0.80;0.80;;;;;;;;;;5083788;28;20208;-67
2023/04/10 14:33:45;;;;;;;0.80;0.80;;;;;;;;;;5083965;28;20227;-67